Time;durP1;ratioP1;P1;durP2;ratioP2;P2;SDS_P1;SDS_P2;PMS_P1;PMS_P2;Temp;Humidity;BMP_temperature;BMP_pressure;BME280_temperature;BME280_humidity;BME280_pressure;Samples;Min_cycle;Max_cycle;Signal;HPM_P1;HPM_P2
2023/03/05 00:02:18;;;;;;;57.60;33.40;;;;;;;5.72;100.00;98974.72;5111947;28;20567;-63
2023/03/05 00:04:46;;;;;;;59.23;33.93;;;;;;;5.84;100.00;98980.50;5111826;28;20204;-64
2023/03/05 00:07:13;;;;;;;53.77;32.37;;;;;;;5.92;100.00;98982.94;5111696;28;20191;-64
2023/03/05 00:09:40;;;;;;;53.73;32.47;;;;;;;5.92;100.00;98979.53;5111841;28;20197;-61
2023/03/05 00:12:07;;;;;;;51.47;31.80;;;;;;;5.90;100.00;98989.84;5111614;28;20210;-63
2023/03/05 00:14:34;;;;;;;55.93;31.93;;;;;;;5.89;100.00;98982.16;5111744;28;20238;-63
2023/03/05 00:17:01;;;;;;;54.93;31.47;;;;;;;5.91;100.00;98983.81;5111506;28;20222;-63
2023/03/05 00:19:28;;;;;;;54.07;31.90;;;;;;;5.91;100.00;98985.56;5111654;28;20225;-64
2023/03/05 00:21:56;;;;;;;59.43;30.73;;;;;;;5.91;100.00;98985.56;5111521;28;20521;-64
2023/03/05 00:24:23;;;;;;;53.07;30.10;;;;;;;5.96;100.00;98983.75;5111502;28;20198;-63
2023/03/05 00:26:50;;;;;;;46.70;28.83;;;;;;;6.03;100.00;98980.16;5111620;28;20579;-61
2023/03/05 00:29:20;;;;;;;48.90;29.90;;;;;;;5.99;100.00;98973.38;5111425;28;20203;-64
2023/03/05 00:31:48;;;;;;;52.63;30.83;;;;;;;5.92;100.00;98979.53;5111451;28;20213;-63
2023/03/05 00:34:17;;;;;;;51.43;30.03;;;;;;;5.81;100.00;98964.25;5111375;28;20206;-64
2023/03/05 00:36:46;;;;;;;52.53;29.97;;;;;;;5.76;100.00;98961.75;5111467;28;20347;-64
2023/03/05 00:39:16;;;;;;;52.63;30.70;;;;;;;5.75;100.00;98959.22;5110927;28;20583;-64
2023/03/05 00:41:43;;;;;;;51.93;32.13;;;;;;;5.71;100.00;98950.69;5111162;28;20194;-64
2023/03/05 00:44:10;;;;;;;53.77;31.53;;;;;;;5.48;100.00;98924.50;5110848;28;20190;-64
2023/03/05 00:46:38;;;;;;;55.33;32.07;;;;;;;5.60;100.00;98950.03;5110760;28;20191;-63
2023/03/05 00:49:06;;;;;;;54.87;32.20;;;;;;;5.72;100.00;98956.69;5110357;28;20739;-63
2023/03/05 00:51:34;;;;;;;63.20;32.63;;;;;;;5.86;100.00;98951.28;5111318;28;20685;-63
2023/03/05 00:54:01;;;;;;;53.27;31.30;;;;;;;5.84;100.00;98954.75;5111012;28;20198;-64
2023/03/05 00:56:29;;;;;;;57.10;32.97;;;;;;;5.73;100.00;98938.66;5110899;28;20731;-62
2023/03/05 00:58:56;;;;;;;49.77;32.03;;;;;;;5.59;100.00;98932.88;5110644;28;20234;-64
2023/03/05 01:01:23;;;;;;;59.17;34.23;;;;;;;5.58;100.00;98938.91;5110967;28;20198;-64
2023/03/05 01:03:51;;;;;;;60.13;33.93;;;;;;;5.68;100.00;98926.72;5110866;28;20205;-64
2023/03/05 01:06:18;;;;;;;57.67;34.27;;;;;;;5.69;100.00;98934.41;5111137;28;20655;-64
2023/03/05 01:08:45;;;;;;;54.23;32.30;;;;;;;5.71;100.00;98932.66;5111000;28;20574;-63
2023/03/05 01:11:12;;;;;;;56.27;31.23;;;;;;;5.60;100.00;98929.44;5110465;28;20713;-60
2023/03/05 01:13:41;;;;;;;59.93;32.47;;;;;;;5.56;100.00;98938.09;5110327;28;20204;-61
2023/03/05 01:16:09;;;;;;;55.90;34.20;;;;;;;5.48;100.00;98932.22;5110405;28;20292;-59
2023/03/05 01:18:37;;;;;;;57.93;33.43;;;;;;;5.46;100.00;98937.41;5110763;28;20282;-60
2023/03/05 01:21:05;;;;;;;56.43;32.73;;;;;;;5.50;100.00;98929.63;5110490;28;20285;-65
2023/03/05 01:23:33;;;;;;;56.83;33.50;;;;;;;5.53;100.00;98932.97;5110450;28;20204;-63
2023/03/05 01:26:00;;;;;;;54.13;31.67;;;;;;;5.58;100.00;98931.19;5110060;28;20635;-64
2023/03/05 01:28:27;;;;;;;54.23;32.43;;;;;;;5.63;100.00;98931.13;5110696;28;20662;-62
2023/03/05 01:30:55;;;;;;;59.03;33.17;;;;;;;5.66;100.00;98938.75;5110277;28;20194;-63
2023/03/05 01:33:23;;;;;;;56.13;32.40;;;;;;;5.74;100.00;98934.34;5110053;28;20194;-60
2023/03/05 01:35:50;;;;;;;51.33;31.60;;;;;;;5.71;100.00;98926.66;5110316;28;20281;-60
2023/03/05 01:38:18;;;;;;;61.20;33.07;;;;;;;5.59;100.00;98932.88;5109708;28;20222;-60
2023/03/05 01:40:45;;;;;;;54.83;31.90;;;;;;;5.61;100.00;98926.00;5110054;28;20205;-63
2023/03/05 01:43:26;;;;;;;51.07;32.13;;;;;;;5.65;100.00;98916.47;5109812;28;20200;-61
2023/03/05 01:46:33;;;;;;;56.60;32.67;;;;;;;5.75;100.00;98918.03;5110228;28;20693;-63
2023/03/05 01:49:17;;;;;;;59.97;34.87;;;;;;;5.58;100.00;98920.91;5109790;28;20197;-63
2023/03/05 01:51:51;;;;;;;63.00;34.20;;;;;;;5.55;100.00;98918.38;5110105;28;20205;-60
2023/03/05 01:54:21;;;;;;;54.77;32.47;;;;;;;5.61;100.00;98915.69;5109849;28;20256;-62
2023/03/05 01:56:50;;;;;;;50.97;30.37;;;;;;;5.61;100.00;98901.97;5110057;28;20735;-63
2023/03/05 01:59:18;;;;;;;54.13;31.80;;;;;;;5.72;100.00;98907.78;5109545;28;20197;-63
2023/03/05 02:01:48;;;;;;;53.57;32.33;;;;;;;5.68;100.00;98901.81;5110513;28;20643;-62
2023/03/05 02:04:18;;;;;;;53.20;30.23;;;;;;;5.73;100.00;98906.91;5110003;28;20671;-60
2023/03/05 02:06:46;;;;;;;61.80;32.17;;;;;;;5.79;100.00;98919.63;5109944;28;20195;-63
2023/03/05 02:09:14;;;;;;;54.73;32.73;;;;;;;5.81;100.00;98917.88;5109814;28;20674;-63
2023/03/05 02:11:41;;;;;;;55.17;32.63;;;;;;;5.73;100.00;98905.19;5110134;28;20197;-63
2023/03/05 02:14:09;;;;;;;58.00;34.30;;;;;;;5.71;100.00;98906.94;5109834;28;20209;-63
2023/03/05 02:16:37;;;;;;;60.37;33.63;;;;;;;5.70;100.00;98899.22;5109959;28;20230;-63
2023/03/05 02:19:06;;;;;;;64.23;35.87;;;;;;;5.61;100.00;98897.69;5109537;28;20198;-63
2023/03/05 02:21:40;;;;;;;62.27;33.63;;;;;;;5.63;100.00;98893.34;5109807;28;20195;-63
2023/03/05 02:24:07;;;;;;;62.77;34.27;;;;;;;5.67;100.00;98899.28;5109532;28;20204;-64
2023/03/05 02:26:34;;;;;;;57.43;34.33;;;;;;;5.66;100.00;98898.41;5109572;28;20324;-62
2023/03/05 02:29:05;;;;;;;68.13;35.30;;;;;;;5.63;100.00;98897.66;5109453;28;20195;-63
2023/03/05 02:31:32;;;;;;;69.00;34.63;;;;;;;5.56;100.00;98891.75;5109828;28;20643;-63
2023/03/05 02:33:58;;;;;;;59.67;34.03;;;;;;;5.69;100.00;98900.09;5109432;28;20203;-62
2023/03/05 02:36:26;;;;;;;60.03;34.43;;;;;;;5.72;100.00;98902.63;5109630;28;20202;-61
2023/03/05 02:38:58;;;;;;;60.40;33.83;;;;;;;5.79;100.00;98904.19;5109309;28;20233;-63
2023/03/05 02:41:25;;;;;;;57.63;34.53;;;;;;;5.86;100.00;98907.50;5109678;28;20198;-64
2023/03/05 02:43:52;;;;;;;57.73;33.50;;;;;;;5.88;100.00;98898.00;5109692;28;20195;-62
2023/03/05 02:46:19;;;;;;;57.50;32.80;;;;;;;5.86;100.00;98892.91;5109626;28;20578;-61
2023/03/05 02:48:45;;;;;;;61.37;33.80;;;;;;;5.73;100.00;98889.72;5109467;28;20628;-64
2023/03/05 02:51:13;;;;;;;56.60;32.10;;;;;;;5.76;100.00;98899.09;5109742;28;20198;-64
2023/03/05 02:53:40;;;;;;;57.67;32.97;;;;;;;5.80;100.00;98893.88;5109604;28;20228;-64
2023/03/05 02:56:08;;;;;;;53.90;32.13;;;;;;;5.86;100.00;98898.06;5109073;28;20575;-62
2023/03/05 02:58:35;;;;;;;54.37;31.77;;;;;;;5.93;100.00;98891.09;5109102;28;20215;-59
2023/03/05 03:01:02;;;;;;;53.73;31.27;;;;;;;5.99;100.00;98889.22;5108757;28;20195;-61
2023/03/05 03:03:30;;;;;;;51.57;30.33;;;;;;;5.91;100.00;98888.53;5108690;28;20286;-63
2023/03/05 03:05:57;;;;;;;46.37;28.70;;;;;;;6.05;100.00;98896.84;5108648;28;20190;-60
2023/03/05 03:08:24;;;;;;;46.93;29.17;;;;;;;6.01;100.00;98902.06;5109322;28;20201;-60
2023/03/05 03:10:51;;;;;;;51.57;29.43;;;;;;;6.09;100.00;98902.78;5108612;28;20198;-63
2023/03/05 03:13:19;;;;;;;41.63;25.63;;;;;;;6.00;100.00;98898.66;5112825;28;20666;-63
2023/03/05 03:15:46;;;;;;;48.93;27.10;;;;;;;5.95;100.00;98909.94;5112971;28;20209;-63
2023/03/05 03:18:13;;;;;;;42.07;25.97;;;;;;;5.96;100.00;98901.34;5112923;28;20724;-63
2023/03/05 03:20:40;;;;;;;40.07;24.60;;;;;;;5.94;100.00;98897.94;5112667;28;20195;-63
2023/03/05 03:23:07;;;;;;;37.90;24.10;;;;;;;5.95;100.00;98891.91;5112658;28;20290;-64
2023/03/05 03:25:34;;;;;;;39.87;24.77;;;;;;;6.08;100.00;98893.34;5112759;28;20239;-61
2023/03/05 03:28:01;;;;;;;36.80;23.97;;;;;;;6.16;100.00;98888.88;5112581;28;20191;-62
2023/03/05 03:30:29;;;;;;;38.00;24.10;;;;;;;6.17;100.00;98893.16;5112675;28;20642;-61
2023/03/05 03:32:56;;;;;;;33.00;21.43;;;;;;;6.14;100.00;98890.63;5112535;28;20190;-64
2023/03/05 03:35:23;;;;;;;42.70;24.07;;;;;;;6.22;100.00;98893.91;5112202;28;20200;-59
2023/03/05 03:37:50;;;;;;;35.67;23.10;;;;;;;6.13;100.00;98888.94;5112329;28;20309;-64
2023/03/05 03:40:18;;;;;;;42.50;26.23;;;;;;;6.06;100.00;98889.97;5112527;28;20741;-64
2023/03/05 03:42:45;;;;;;;42.30;25.63;;;;;;;6.13;100.00;98888.94;5112834;28;20194;-62
2023/03/05 03:45:13;;;;;;;43.87;27.13;;;;;;;6.10;100.00;98899.31;5112382;28;20285;-64
2023/03/05 03:47:41;;;;;;;43.27;27.83;;;;;;;6.14;100.00;98893.22;5112270;28;20325;-60
2023/03/05 03:50:09;;;;;;;45.73;27.80;;;;;;;6.01;100.00;98884.88;5111953;28;20230;-64
2023/03/05 03:52:37;;;;;;;41.37;27.13;;;;;;;6.09;100.00;98883.03;5112261;28;20230;-61
2023/03/05 03:55:04;;;;;;;45.30;27.23;;;;;;;6.11;100.00;98886.38;5112092;28;20280;-61
2023/03/05 03:57:32;;;;;;;43.87;26.13;;;;;;;5.98;100.00;98881.56;5112089;28;20219;-60
2023/03/05 03:59:59;;;;;;;43.50;27.23;;;;;;;5.88;100.00;98867.09;5111737;28;20585;-63
2023/03/05 04:02:26;;;;;;;43.03;27.10;;;;;;;5.96;100.00;98878.16;5111829;28;20195;-59
2023/03/05 04:04:55;;;;;;;54.70;31.37;;;;;;;5.91;100.00;98887.69;5111921;28;20201;-61
2023/03/05 04:07:21;;;;;;;51.10;32.33;;;;;;;5.86;100.00;98880.03;5111642;28;20233;-63
2023/03/05 04:09:48;;;;;;;55.20;31.93;;;;;;;5.90;100.00;98889.41;5112132;28;20194;-60
2023/03/05 04:12:17;;;;;;;56.93;33.07;;;;;;;5.74;100.00;98888.84;5111864;28;20195;-60
2023/03/05 04:14:45;;;;;;;58.30;31.80;;;;;;;5.75;100.00;98887.13;5111791;28;20195;-64
2023/03/05 04:17:12;;;;;;;54.30;29.87;;;;;;;5.59;100.00;98896.84;5111368;28;20204;-60
2023/03/05 04:19:39;;;;;;;47.53;27.93;;;;;;;5.67;100.00;98896.69;5111793;28;20203;-60
2023/03/05 04:22:10;;;;;;;44.63;28.47;;;;;;;5.69;100.00;98889.78;5111715;28;20273;-64
2023/03/05 04:24:37;;;;;;;43.07;24.57;;;;;;;5.65;100.00;98901.88;5111387;28;20197;-64
2023/03/05 04:27:04;;;;;;;39.60;23.07;;;;;;;5.57;100.00;98893.47;5111505;28;20198;-64
2023/03/05 04:29:31;;;;;;;36.10;21.37;;;;;;;5.61;100.00;98891.69;5111503;28;20213;-64
2023/03/05 04:31:58;;;;;;;35.63;22.23;;;;;;;5.68;100.00;98894.09;5111355;28;20197;-61
2023/03/05 04:34:25;;;;;;;36.47;22.53;;;;;;;5.62;100.00;98891.66;5111723;28;20195;-60
2023/03/05 04:36:52;;;;;;;35.57;22.20;;;;;;;5.63;100.00;98895.06;5111547;28;20196;-63
2023/03/05 04:39:20;;;;;;;50.57;27.67;;;;;;;5.63;100.00;98889.94;5111352;28;20229;-61
2023/03/05 04:41:47;;;;;;;42.23;26.40;;;;;;;5.72;100.00;98885.44;5111444;28;20195;-64
2023/03/05 04:44:16;;;;;;;43.43;25.73;;;;;;;5.72;100.00;98892.31;5110943;28;20198;-61
2023/03/05 04:46:43;;;;;;;53.43;31.20;;;;;;;5.76;100.00;98899.94;5092160;27;20218;-61
2023/03/05 04:49:10;;;;;;;51.13;31.00;;;;;;;5.69;100.00;98897.53;5090314;28;20309;-64
2023/03/05 04:51:37;;;;;;;48.67;28.43;;;;;;;5.66;100.00;98895.84;5101390;28;20226;-63
2023/03/05 04:54:04;;;;;;;43.77;25.90;;;;;;;5.66;100.00;98890.69;5109884;28;20218;-62
2023/03/05 04:56:33;;;;;;;36.40;23.40;;;;;;;5.60;100.00;98893.41;5110096;28;20598;-63
2023/03/05 04:59:00;;;;;;;41.60;23.90;;;;;;;5.57;100.00;98900.31;5110248;28;20624;-63
2023/03/05 05:01:27;;;;;;;36.73;22.40;;;;;;;5.41;100.00;98898.06;5110568;28;20284;-63
2023/03/05 05:03:54;;;;;;;35.07;21.63;;;;;;;5.40;100.00;98891.22;5109902;28;20257;-63
2023/03/05 05:06:21;;;;;;;37.40;22.57;;;;;;;5.48;100.00;98901.34;5110479;28;20223;-63
2023/03/05 05:08:48;;;;;;;33.93;21.70;;;;;;;5.56;100.00;98894.31;5110010;28;20211;-62
2023/03/05 05:11:15;;;;;;;41.37;24.27;;;;;;;5.74;100.00;98901.72;5109851;28;20223;-63
2023/03/05 05:13:43;;;;;;;42.53;23.67;;;;;;;5.88;100.00;98903.16;5109316;28;20214;-61
2023/03/05 05:16:10;;;;;;;38.67;24.17;;;;;;;5.96;100.00;98904.75;5110030;28;20226;-65
2023/03/05 05:18:37;;;;;;;36.23;22.57;;;;;;;6.06;100.00;98898.53;5109039;28;20226;-62
2023/03/05 05:21:07;;;;;;;35.87;22.00;;;;;;;6.17;100.00;98898.31;5109698;28;20592;-64
2023/03/05 05:23:34;;;;;;;31.20;20.87;;;;;;;6.08;100.00;98896.78;5108578;28;20202;-63
2023/03/05 05:26:03;;;;;;;36.50;21.77;;;;;;;6.09;100.00;98906.22;5109363;28;20195;-65
2023/03/05 05:28:31;;;;;;;38.40;22.27;;;;;;;6.04;100.00;98904.59;5110035;28;20191;-61
2023/03/05 05:30:59;;;;;;;40.30;21.73;;;;;;;6.18;100.00;98918.03;5110290;28;20198;-62
2023/03/05 05:33:27;;;;;;;35.03;22.27;;;;;;;6.34;100.00;98923.72;5110429;28;20710;-64
2023/03/05 05:35:53;;;;;;;33.47;22.67;;;;;;;6.44;100.00;98918.31;5109879;28;20198;-63
2023/03/05 05:38:21;;;;;;;38.60;23.57;;;;;;;6.44;100.00;98920.91;5110019;28;20227;-61
2023/03/05 05:40:47;;;;;;;33.87;21.93;;;;;;;6.47;100.00;98920.00;5110499;28;20194;-62
2023/03/05 05:43:14;;;;;;;33.80;22.03;;;;;;;6.53;100.00;98925.88;5110096;28;20312;-62
2023/03/05 05:45:41;;;;;;;33.43;21.27;;;;;;;6.68;100.00;98924.66;5110260;28;20199;-61
2023/03/05 05:48:10;;;;;;;34.20;21.30;;;;;;;6.78;100.00;98930.47;5109794;28;20615;-62
2023/03/05 05:50:38;;;;;;;32.17;21.20;;;;;;;6.88;100.00;98931.97;5109652;28;20190;-64
2023/03/05 05:53:05;;;;;;;31.93;21.67;;;;;;;6.80;100.00;98924.41;5109846;28;20590;-59
2023/03/05 05:55:32;;;;;;;35.20;23.30;;;;;;;6.92;100.00;98938.75;5109706;28;20199;-68
2023/03/05 05:57:58;;;;;;;37.00;21.90;;;;;;;6.80;100.00;98926.97;5109551;28;20629;-64
2023/03/05 06:00:25;;;;;;;36.10;23.97;;;;;;;6.90;100.00;98943.09;5109578;28;20195;-63
2023/03/05 06:02:52;;;;;;;34.93;22.00;;;;;;;6.92;100.00;98942.16;5109670;28;20191;-61
2023/03/05 06:05:21;;;;;;;32.73;21.33;;;;;;;6.92;100.00;98938.75;5108888;28;20191;-59
2023/03/05 06:07:48;;;;;;;39.53;22.80;;;;;;;6.82;100.00;98950.16;5109340;28;20285;-63
2023/03/05 06:10:15;;;;;;;41.20;22.47;;;;;;;6.93;100.00;98951.59;5109329;28;20581;-63
2023/03/05 06:12:42;;;;;;;44.03;27.27;;;;;;;6.70;100.00;98925.50;5109406;28;20194;-60
2023/03/05 06:15:09;;;;;;;50.17;30.27;;;;;;;6.81;100.00;98951.03;5108491;28;20206;-62
2023/03/05 06:17:36;;;;;;;48.73;30.80;;;;;;;6.78;100.00;98951.94;5109896;28;20693;-62
2023/03/05 06:20:04;;;;;;;42.80;29.77;;;;;;;6.79;100.00;98945.06;5109622;28;20232;-60
2023/03/05 06:22:35;;;;;;;52.23;30.87;;;;;;;6.85;100.00;98939.78;5109827;28;20259;-61
2023/03/05 06:25:02;;;;;;;53.20;30.30;;;;;;;7.05;100.00;98941.88;5109652;28;20204;-61
2023/03/05 06:27:29;;;;;;;50.40;31.50;;;;;;;7.17;100.00;98945.03;5109430;28;20190;-60
2023/03/05 06:29:56;;;;;;;58.63;32.37;;;;;;;7.31;100.00;98956.75;5109986;28;20191;-60
2023/03/05 06:32:24;;;;;;;53.77;32.97;;;;;;;7.48;100.00;98959.75;5109356;28;20625;-64
2023/03/05 06:34:50;;;;;;;52.33;32.13;;;;;;;7.62;100.00;98958.50;5108161;28;20214;-61
2023/03/05 06:37:17;;;;;;;49.00;31.47;;;;;;;7.89;100.00;98961.28;5108859;28;20199;-61
2023/03/05 06:39:46;;;;;;;52.63;33.30;;;;;;;8.17;100.00;98963.94;5105655;28;20211;-61
2023/03/05 06:42:13;;;;;;;56.27;35.77;;;;;;;8.57;100.00;98967.13;5104958;28;20219;-63
2023/03/05 06:44:41;;;;;;;67.77;39.43;;;;;;;8.61;100.00;98962.69;5106372;28;20575;-62
2023/03/05 06:47:09;;;;;;;65.63;40.20;;;;;;;9.06;100.00;98963.88;5108046;28;20232;-64
2023/03/05 06:49:36;;;;;;;57.67;37.47;;;;;;;10.04;100.00;98950.25;5111003;28;20702;-64
2023/03/05 06:52:03;;;;;;;61.20;37.07;;;;;;;12.09;100.00;98965.47;5110387;28;20256;-61
2023/03/05 06:54:30;;;;;;;55.07;35.10;;;;;;;14.50;95.67;98963.28;5110768;28;20214;-64
2023/03/05 06:56:59;;;;;;;45.47;30.20;;;;;;;16.28;85.83;98970.53;5111737;28;20210;-64
2023/03/05 06:59:26;;;;;;;41.17;28.53;;;;;;;17.67;74.45;98965.22;5110206;28;20230;-61
2023/03/05 07:01:53;;;;;;;43.03;29.10;;;;;;;19.20;69.23;98964.97;5111233;28;20218;-61
2023/03/05 07:04:22;;;;;;;38.08;28.00;;;;;;;20.89;59.60;98961.72;5110978;28;20214;-61
2023/03/05 07:06:49;;;;;;;41.08;29.63;;;;;;;20.66;56.83;98968.84;5110815;28;20226;-64
2023/03/05 07:09:17;;;;;;;40.38;27.23;;;;;;;19.77;59.04;98963.44;5108102;28;20305;-63
2023/03/05 07:11:44;;;;;;;39.83;28.00;;;;;;;20.79;58.04;98966.91;5110689;28;20226;-64
2023/03/05 07:14:12;;;;;;;42.65;29.83;;;;;;;22.25;53.39;98968.03;5110422;28;20301;-64
2023/03/05 07:16:39;;;;;;;35.75;26.67;;;;;;;22.71;50.31;98972.00;5110562;28;20229;-65
2023/03/05 07:19:09;;;;;;;32.05;23.10;;;;;;;22.51;48.91;98964.97;5109419;28;20281;-63
2023/03/05 07:21:36;;;;;;;25.65;21.27;;;;;;;21.82;50.33;98972.59;5107862;28;20790;-64
2023/03/05 07:24:04;;;;;;;28.95;20.77;;;;;;;21.11;50.79;98971.41;5111013;28;20215;-62
2023/03/05 07:26:33;;;;;;;23.33;20.13;;;;;;;20.72;52.45;98964.88;5110733;28;20224;-62
2023/03/05 07:29:01;;;;;;;24.17;20.63;;;;;;;19.83;54.01;98966.47;5110111;28;20649;-58
2023/03/05 07:31:30;;;;;;;23.70;18.35;;;;;;;18.76;56.24;98962.91;5112039;28;20226;-57
2023/03/05 07:33:58;;;;;;;19.77;16.35;;;;;;;17.76;59.56;98951.47;5112388;28;20195;-59
2023/03/05 07:36:25;;;;;;;24.83;16.40;;;;;;;15.81;64.99;98948.03;5112778;28;20201;-58
2023/03/05 07:38:52;;;;;;;20.58;16.83;;;;;;;15.26;68.05;98943.38;5112667;28;20257;-58
2023/03/05 07:41:20;;;;;;;19.30;15.60;;;;;;;14.98;69.88;98945.88;5106156;28;20219;-59
2023/03/05 07:43:48;;;;;;;19.70;15.87;;;;;;;14.42;72.23;98939.38;5091515;28;20695;-56
2023/03/05 07:46:18;;;;;;;18.60;15.77;;;;;;;14.54;71.97;98937.84;5100372;28;20214;-57
2023/03/05 07:48:46;;;;;;;20.27;15.77;;;;;;;14.57;72.18;98936.81;5110980;28;20624;-56
2023/03/05 07:51:16;;;;;;;21.70;17.30;;;;;;;14.46;73.05;98940.03;5117158;27;20615;-56
2023/03/05 07:53:43;;;;;;;21.70;16.57;;;;;;;14.10;74.38;98937.56;5119755;27;20225;-56
2023/03/05 07:56:10;;;;;;;35.73;27.80;;;;;;;14.06;75.49;98931.66;5091100;28;20597;-57
2023/03/05 07:58:37;;;;;;;22.67;17.60;;;;;;;14.15;75.65;98918.13;5103000;28;20232;-57
2023/03/05 08:01:04;;;;;;;27.23;20.67;;;;;;;14.41;74.74;98918.56;5110570;28;20219;-61
2023/03/05 08:03:31;;;;;;;23.73;18.30;;;;;;;14.78;73.79;98914.78;5109907;28;20765;-63
2023/03/05 08:06:00;;;;;;;22.05;17.65;;;;;;;15.02;73.00;98910.78;5109511;28;20935;-61
2023/03/05 08:08:27;;;;;;;21.17;17.10;;;;;;;15.25;72.28;98906.84;5110984;28;20240;-62
2023/03/05 08:10:54;;;;;;;22.07;16.60;;;;;;;15.27;71.29;98905.84;5109078;28;20218;-62
2023/03/05 08:13:20;;;;;;;21.83;15.80;;;;;;;15.23;71.07;98913.97;5105443;28;20616;-65
2023/03/05 08:15:47;;;;;;;18.53;15.93;;;;;;;15.18;71.81;98902.91;5111134;28;20195;-64
2023/03/05 08:18:17;;;;;;;24.43;17.00;;;;;;;15.37;70.78;98906.13;5109928;28;20195;-65
2023/03/05 08:20:44;;;;;;;23.63;17.00;;;;;;;15.44;70.93;98907.50;5111441;28;20202;-64
2023/03/05 08:23:12;;;;;;;22.23;17.57;;;;;;;15.54;70.53;98902.56;5110915;28;20255;-62
2023/03/05 08:25:39;;;;;;;25.53;17.20;;;;;;;15.43;71.24;98902.34;5111722;28;20286;-62
2023/03/05 08:28:06;;;;;;;25.67;18.47;;;;;;;15.29;71.57;98899.69;5110727;28;20195;-63
2023/03/05 08:30:33;;;;;;;23.80;18.37;;;;;;;15.03;72.18;98898.53;5111050;28;20199;-62
2023/03/05 08:33:00;;;;;;;24.97;18.40;;;;;;;15.17;72.38;98896.84;5111502;28;20705;-62
2023/03/05 08:35:27;;;;;;;28.43;19.40;;;;;;;14.88;73.52;98889.81;5111428;28;20201;-62
2023/03/05 08:37:54;;;;;;;26.50;19.53;;;;;;;14.61;73.73;98894.81;5111501;28;20194;-63
2023/03/05 08:40:22;;;;;;;28.33;19.10;;;;;;;14.19;76.10;98877.06;5093601;28;20732;-65
2023/03/05 08:42:50;;;;;;;25.93;18.83;;;;;;;14.06;76.79;98891.69;5091060;28;20234;-65
2023/03/05 08:45:17;;;;;;;29.33;19.77;;;;;;;13.96;76.36;98883.50;5090638;28;20202;-62
2023/03/05 08:47:44;;;;;;;29.63;19.73;;;;;;;13.98;77.66;98880.81;5090848;28;20241;-65
2023/03/05 08:50:12;;;;;;;27.03;20.13;;;;;;;13.96;78.77;98874.81;5090604;28;20218;-65
2023/03/05 08:52:39;;;;;;;30.37;20.87;;;;;;;14.16;78.44;98874.59;5090893;28;20290;-65
2023/03/05 08:55:06;;;;;;;29.10;20.03;;;;;;;14.14;78.48;98868.63;5090716;28;20689;-62
2023/03/05 08:57:35;;;;;;;31.60;20.93;;;;;;;14.08;78.23;98869.81;5090895;28;20567;-62
2023/03/05 09:00:02;;;;;;;32.77;22.60;;;;;;;14.10;78.50;98870.56;5090788;28;20215;-65
2023/03/05 09:02:28;;;;;;;31.37;22.50;;;;;;;13.97;79.19;98872.16;5090652;28;20289;-64
2023/03/05 09:04:55;;;;;;;33.57;21.63;;;;;;;13.92;78.48;98873.28;5090470;28;20197;-61
2023/03/05 09:07:22;;;;;;;43.90;25.13;;;;;;;13.75;80.13;98871.59;5090453;28;20358;-62
2023/03/05 09:09:49;;;;;;;78.77;36.80;;;;;;;13.81;79.75;98873.84;5089690;28;20200;-64
2023/03/05 09:12:16;;;;;;;49.87;27.77;;;;;;;13.98;78.88;98871.22;5090267;28;20290;-65
2023/03/05 09:14:45;;;;;;;48.77;28.17;;;;;;;14.06;78.31;98862.97;5090537;28;20588;-63
2023/03/05 09:17:12;;;;;;;36.80;22.70;;;;;;;14.04;78.40;98862.22;5090128;28;20723;-67
2023/03/05 09:19:38;;;;;;;32.83;22.27;;;;;;;13.97;78.60;98863.47;5090639;28;20702;-67
2023/03/05 09:22:05;;;;;;;41.87;25.23;;;;;;;14.11;78.69;98855.72;5090445;28;20217;-67
2023/03/05 09:24:32;;;;;;;43.97;26.97;;;;;;;14.05;79.20;98859.53;5090572;28;20195;-68
2023/03/05 09:27:00;;;;;;;34.97;23.50;;;;;;;13.79;80.10;98850.47;5090569;28;20238;-67
2023/03/05 09:29:28;;;;;;;49.17;29.20;;;;;;;13.56;80.88;98847.34;5090318;28;20191;-67
2023/03/05 09:31:57;;;;;;;41.67;25.63;;;;;;;13.47;80.96;98846.06;5090221;28;20638;-68
2023/03/05 09:34:24;;;;;;;38.63;25.27;;;;;;;13.34;80.19;98834.56;5089964;28;20201;-68
2023/03/05 09:36:51;;;;;;;92.10;48.00;;;;;;;13.36;79.77;98841.41;5090214;28;20201;-68
2023/03/05 09:39:18;;;;;;;44.00;27.37;;;;;;;13.42;79.56;98837.66;5089997;28;20222;-67
2023/03/05 09:42:05;;;;;;;43.90;28.23;;;;;;;13.39;79.05;98830.84;5090124;28;20195;-69
2023/03/05 09:44:41;;;;;;;41.10;28.03;;;;;;;13.51;78.59;98829.38;5090210;28;20286;-70
2023/03/05 09:47:22;;;;;;;53.33;32.93;;;;;;;13.62;77.27;98823.59;5089959;28;20226;-70
2023/03/05 09:49:58;;;;;;;50.33;32.63;;;;;;;13.81;76.55;98824.31;5089961;28;20198;-64
2023/03/05 09:52:37;;;;;;;66.33;39.37;;;;;;;13.85;75.34;98823.22;5089653;28;20191;-65
2023/03/05 09:55:11;;;;;;;40.17;28.43;;;;;;;13.76;75.67;98819.34;5089675;28;20290;-64
2023/03/05 09:57:43;;;;;;;35.93;22.60;;;;;;;13.96;74.57;98814.81;5089996;28;20199;-65
2023/03/05 10:00:27;;;;;;;32.33;20.80;;;;;;;14.20;72.99;98821.34;5090056;28;20225;-64
2023/03/05 10:02:58;;;;;;;26.83;19.07;;;;;;;14.51;72.14;98808.28;5089751;28;20199;-65
2023/03/05 10:05:32;;;;;;;28.90;19.73;;;;;;;14.73;71.56;98807.09;5089576;28;20201;-65
2023/03/05 10:08:03;;;;;;;31.73;21.33;;;;;;;14.63;72.42;98796.31;5089797;28;20221;-62
2023/03/05 10:10:40;;;;;;;28.97;19.67;;;;;;;14.84;72.32;98804.69;5089873;28;20282;-65
2023/03/05 10:13:17;;;;;;;29.23;20.27;;;;;;;14.50;72.78;98801.38;5089577;28;20195;-64
2023/03/05 10:15:53;;;;;;;31.17;20.90;;;;;;;14.33;73.06;98791.03;5088901;28;20685;-63
2023/03/05 10:18:30;;;;;;;33.93;20.87;;;;;;;14.31;72.34;98785.03;5088889;28;20195;-62
2023/03/05 10:21:01;;;;;;;29.13;18.40;;;;;;;14.53;71.87;98788.16;5093625;28;20297;-63
2023/03/05 10:23:51;;;;;;;28.07;18.10;;;;;;;14.68;70.19;98785.59;5113564;28;20762;-64
2023/03/05 10:26:32;;;;;;;26.33;17.37;;;;;;;14.69;69.82;98761.16;5113505;28;20285;-63
2023/03/05 10:29:12;;;;;;;25.90;17.63;;;;;;;14.98;69.58;98786.47;5113129;28;20688;-63
2023/03/05 10:31:53;;;;;;;28.30;18.90;;;;;;;14.79;69.73;98767.53;5113337;28;20582;-63
2023/03/05 10:34:44;;;;;;;41.13;25.07;;;;;;;14.72;69.27;98763.59;5113545;28;20742;-64
2023/03/05 10:37:26;;;;;;;50.47;28.53;;;;;;;14.85;68.59;98756.75;5113555;28;20195;-64
2023/03/05 10:40:08;;;;;;;33.20;20.07;;;;;;;14.99;68.09;98761.16;5110572;28;20793;-62
2023/03/05 10:42:42;;;;;;;41.67;22.03;;;;;;;15.14;68.18;98750.63;5114287;28;20247;-64
2023/03/05 10:45:17;;;;;;;34.97;20.50;;;;;;;15.18;67.42;98744.31;5113558;28;20195;-63
2023/03/05 10:47:48;;;;;;;30.13;19.37;;;;;;;15.07;67.43;98744.09;5112844;28;20611;-61
2023/03/05 10:50:20;;;;;;;31.77;19.67;;;;;;;15.14;67.77;98741.94;5111843;28;20195;-62
2023/03/05 10:52:52;;;;;;;33.17;20.53;;;;;;;15.11;67.76;98729.94;5106742;28;20285;-63
2023/03/05 10:55:22;;;;;;;31.43;19.90;;;;;;;15.03;67.26;98724.28;5110000;28;20202;-64
2023/03/05 10:57:49;;;;;;;32.87;20.00;;;;;;;15.15;67.01;98714.88;5111618;28;20187;-64
2023/03/05 11:00:22;;;;;;;32.67;22.00;;;;;;;14.99;67.18;98714.97;5111458;28;20606;-65
2023/03/05 11:02:57;;;;;;;32.97;20.23;;;;;;;15.09;65.90;98705.66;5111182;28;20660;-64
2023/03/05 11:05:47;;;;;;;32.57;20.33;;;;;;;15.06;65.86;98694.53;5110504;28;20194;-65
2023/03/05 11:08:27;;;;;;;28.73;19.53;;;;;;;15.11;65.88;98682.88;5106583;28;20205;-65
2023/03/05 11:11:12;;;;;;;27.00;18.13;;;;;;;14.96;66.57;98683.78;5113356;28;20194;-64
2023/03/05 11:13:51;;;;;;;25.10;18.43;;;;;;;14.95;66.41;98668.19;5110147;28;20198;-61
2023/03/05 11:16:21;;;;;;;26.50;17.63;;;;;;;14.97;65.46;98669.78;5110518;28;20655;-63
2023/03/05 11:18:49;;;;;;;21.57;17.13;;;;;;;14.88;65.74;98665.13;5107175;28;20595;-61
2023/03/05 11:21:26;;;;;;;24.50;16.97;;;;;;;14.87;66.02;98661.69;5111288;28;20234;-62
2023/03/05 11:24:12;;;;;;;24.00;16.47;;;;;;;14.78;65.10;98640.50;5110034;28;20667;-62
2023/03/05 11:26:46;;;;;;;25.63;17.70;;;;;;;14.67;66.16;98648.13;5110863;28;20206;-61